KHQM/HQM METAR and TAF weather

Enter ICAO airport designator
Station Type Date Time Source
KHQM METAR 2020/09/19 20:53 UTC NOAA

KHQM 192053Z AUTO 24010KT 10SM FEW036 BKN075 OVC090 17/14 A3009 RMK AO2 SLP193 T01720139 53004


Station Type Date Time Source
KHQM Decoded METAR 2020/09/19 20:53 UTC NOAA

HOQUIAM BOWERMAN AIRPORT, WA, United States (KHQM) 46-58N 123-56W 7M
Sep 19, 2020 - 04:53 PM EDT / 2020.09.19 2053 UTC
Wind: from the WSW (240 degrees) at 12 MPH (10 KT):0
Visibility: 10 mile(s):0
Sky conditions: overcast
Temperature: 63.0 F (17.2 C)
Dew Point: 57.0 F (13.9 C)
Relative Humidity: 80%
Pressure (altimeter): 30.09 in. Hg (1018 hPa)
Pressure tendency: 0.01 inches (0.4 hPa) higher than three hours ago
ob: KHQM 192053Z AUTO 24010KT 10SM FEW036 BKN075 OVC090 17/14 A3009 RMK AO2 SLP193 T01720139 53004
cycle: 21

Station Type Date Time Source
KHQM TAF 2020/09/19 18:30 UTC NOAA

TAF KHQM 191728Z 1918/2018 23004KT 6SM BR VCSH BKN009 BKN060 OVC080
FM191900 22006KT P6SM VCSH SCT009 BKN020
FM192200 22010KT P6SM VCSH BKN025
FM200500 21005KT P6SM OVC004

Example: see airport list